sensor_id;sensor_type;location;lat;lon;timestamp;P1;durP1;ratioP1;P2;durP2;ratioP2
3355;SDS011;1691;52.486;13.374;2023-02-22T00:01:41;34.77;;;4.53;;
3355;SDS011;1691;52.486;13.374;2023-02-22T00:04:36;20.23;;;3.77;;
3355;SDS011;1691;52.486;13.374;2023-02-22T00:07:05;21.27;;;4.20;;
3355;SDS011;1691;52.486;13.374;2023-02-22T00:09:32;23.90;;;5.27;;
3355;SDS011;1691;52.486;13.374;2023-02-22T00:11:59;24.93;;;6.10;;
3355;SDS011;1691;52.486;13.374;2023-02-22T00:14:27;21.30;;;5.40;;
3355;SDS011;1691;52.486;13.374;2023-02-22T00:16:54;19.43;;;5.27;;
3355;SDS011;1691;52.486;13.374;2023-02-22T00:19:25;30.93;;;5.40;;
3355;SDS011;1691;52.486;13.374;2023-02-22T00:21:55;22.10;;;5.53;;
3355;SDS011;1691;52.486;13.374;2023-02-22T00:24:23;18.70;;;4.90;;
3355;SDS011;1691;52.486;13.374;2023-02-22T00:26:54;23.43;;;4.67;;
3355;SDS011;1691;52.486;13.374;2023-02-22T00:29:21;18.10;;;4.50;;
3355;SDS011;1691;52.486;13.374;2023-02-22T00:31:49;25.53;;;4.90;;
3355;SDS011;1691;52.486;13.374;2023-02-22T00:34:17;23.20;;;4.30;;
3355;SDS011;1691;52.486;13.374;2023-02-22T00:36:44;31.00;;;5.63;;
3355;SDS011;1691;52.486;13.374;2023-02-22T00:39:13;21.40;;;4.93;;
3355;SDS011;1691;52.486;13.374;2023-02-22T00:41:40;27.10;;;4.93;;
3355;SDS011;1691;52.486;13.374;2023-02-22T00:44:07;20.83;;;4.10;;
3355;SDS011;1691;52.486;13.374;2023-02-22T00:46:34;22.23;;;4.47;;
3355;SDS011;1691;52.486;13.374;2023-02-22T00:49:01;23.17;;;4.37;;
3355;SDS011;1691;52.486;13.374;2023-02-22T00:51:30;22.63;;;3.93;;
3355;SDS011;1691;52.486;13.374;2023-02-22T00:53:59;30.00;;;4.87;;
3355;SDS011;1691;52.486;13.374;2023-02-22T00:56:26;20.27;;;3.50;;
3355;SDS011;1691;52.486;13.374;2023-02-22T00:58:53;16.87;;;4.90;;
3355;SDS011;1691;52.486;13.374;2023-02-22T01:01:20;13.13;;;3.90;;
3355;SDS011;1691;52.486;13.374;2023-02-22T01:03:47;32.90;;;4.70;;
3355;SDS011;1691;52.486;13.374;2023-02-22T01:06:14;29.30;;;4.77;;
3355;SDS011;1691;52.486;13.374;2023-02-22T01:08:45;32.23;;;4.50;;
3355;SDS011;1691;52.486;13.374;2023-02-22T01:11:14;20.83;;;4.00;;
3355;SDS011;1691;52.486;13.374;2023-02-22T01:13:43;24.33;;;3.63;;
3355;SDS011;1691;52.486;13.374;2023-02-22T01:16:13;19.47;;;3.67;;
3355;SDS011;1691;52.486;13.374;2023-02-22T01:18:40;32.87;;;5.07;;
3355;SDS011;1691;52.486;13.374;2023-02-22T01:21:07;28.10;;;4.27;;
3355;SDS011;1691;52.486;13.374;2023-02-22T01:23:34;37.80;;;5.20;;
3355;SDS011;1691;52.486;13.374;2023-02-22T01:26:01;22.60;;;4.87;;
3355;SDS011;1691;52.486;13.374;2023-02-22T01:28:31;15.33;;;4.37;;
3355;SDS011;1691;52.486;13.374;2023-02-22T01:30:59;18.10;;;3.80;;
3355;SDS011;1691;52.486;13.374;2023-02-22T01:33:27;17.33;;;4.13;;
3355;SDS011;1691;52.486;13.374;2023-02-22T01:35:54;17.73;;;3.87;;
3355;SDS011;1691;52.486;13.374;2023-02-22T01:38:21;18.00;;;4.30;;
3355;SDS011;1691;52.486;13.374;2023-02-22T01:40:49;26.47;;;4.10;;
3355;SDS011;1691;52.486;13.374;2023-02-22T01:43:22;20.77;;;3.67;;
3355;SDS011;1691;52.486;13.374;2023-02-22T01:46:16;19.27;;;4.33;;
3355;SDS011;1691;52.486;13.374;2023-02-22T01:48:51;26.77;;;5.17;;
3355;SDS011;1691;52.486;13.374;2023-02-22T01:51:29;21.27;;;3.90;;
3355;SDS011;1691;52.486;13.374;2023-02-22T01:54:23;21.03;;;4.63;;
3355;SDS011;1691;52.486;13.374;2023-02-22T02:00:02;19.37;;;4.10;;
3355;SDS011;1691;52.486;13.374;2023-02-22T02:02:37;26.07;;;4.87;;
3355;SDS011;1691;52.486;13.374;2023-02-22T02:05:12;25.20;;;4.40;;
3355;SDS011;1691;52.486;13.374;2023-02-22T02:07:42;29.10;;;4.00;;
3355;SDS011;1691;52.486;13.374;2023-02-22T02:10:16;25.13;;;4.90;;
3355;SDS011;1691;52.486;13.374;2023-02-22T02:12:50;16.27;;;4.30;;
3355;SDS011;1691;52.486;13.374;2023-02-22T02:15:21;27.70;;;4.20;;
3355;SDS011;1691;52.486;13.374;2023-02-22T02:17:57;23.50;;;3.80;;
3355;SDS011;1691;52.486;13.374;2023-02-22T02:23:37;23.43;;;3.90;;
3355;SDS011;1691;52.486;13.374;2023-02-22T02:30:08;24.43;;;5.20;;
3355;SDS011;1691;52.486;13.374;2023-02-22T02:35:48;32.40;;;6.83;;
3355;SDS011;1691;52.486;13.374;2023-02-22T02:38:31;27.03;;;6.47;;
3355;SDS011;1691;52.486;13.374;2023-02-22T02:41:34;18.43;;;3.83;;
3355;SDS011;1691;52.486;13.374;2023-02-22T02:47:08;22.13;;;4.60;;
3355;SDS011;1691;52.486;13.374;2023-02-22T02:52:53;30.20;;;5.03;;
3355;SDS011;1691;52.486;13.374;2023-02-22T02:55:28;23.53;;;4.53;;
3355;SDS011;1691;52.486;13.374;2023-02-22T02:58:17;31.47;;;5.37;;
3355;SDS011;1691;52.486;13.374;2023-02-22T03:01:18;21.03;;;3.87;;
3355;SDS011;1691;52.486;13.374;2023-02-22T03:14:15;26.57;;;4.90;;
3355;SDS011;1691;52.486;13.374;2023-02-22T03:18:14;17.93;;;5.00;;
3355;SDS011;1691;52.486;13.374;2023-02-22T03:23:32;15.63;;;3.80;;
3355;SDS011;1691;52.486;13.374;2023-02-22T03:26:13;17.60;;;4.20;;
3355;SDS011;1691;52.486;13.374;2023-02-22T03:28:55;21.30;;;3.97;;
3355;SDS011;1691;52.486;13.374;2023-02-22T03:31:44;29.23;;;4.97;;
3355;SDS011;1691;52.486;13.374;2023-02-22T03:34:32;19.30;;;4.50;;
3355;SDS011;1691;52.486;13.374;2023-02-22T03:37:15;24.60;;;4.13;;
3355;SDS011;1691;52.486;13.374;2023-02-22T03:39:48;29.77;;;4.80;;
3355;SDS011;1691;52.486;13.374;2023-02-22T03:42:30;29.77;;;5.20;;
3355;SDS011;1691;52.486;13.374;2023-02-22T03:45:03;26.03;;;4.90;;
3355;SDS011;1691;52.486;13.374;2023-02-22T03:47:46;27.53;;;6.10;;
3355;SDS011;1691;52.486;13.374;2023-02-22T03:50:21;29.63;;;6.90;;
3355;SDS011;1691;52.486;13.374;2023-02-22T03:53:17;24.83;;;6.00;;
3355;SDS011;1691;52.486;13.374;2023-02-22T03:56:34;27.23;;;6.33;;
3355;SDS011;1691;52.486;13.374;2023-02-22T03:59:55;16.37;;;5.80;;
3355;SDS011;1691;52.486;13.374;2023-02-22T04:02:54;32.10;;;5.30;;
3355;SDS011;1691;52.486;13.374;2023-02-22T04:05:28;11.13;;;4.23;;
3355;SDS011;1691;52.486;13.374;2023-02-22T04:08:19;10.93;;;3.43;;
3355;SDS011;1691;52.486;13.374;2023-02-22T04:11:02;18.60;;;5.50;;
3355;SDS011;1691;52.486;13.374;2023-02-22T04:13:55;26.53;;;6.80;;
3355;SDS011;1691;52.486;13.374;2023-02-22T04:16:58;24.00;;;4.03;;
3355;SDS011;1691;52.486;13.374;2023-02-22T04:23:09;30.33;;;4.53;;
3355;SDS011;1691;52.486;13.374;2023-02-22T04:25:37;26.83;;;5.13;;
3355;SDS011;1691;52.486;13.374;2023-02-22T04:28:08;35.33;;;4.07;;
3355;SDS011;1691;52.486;13.374;2023-02-22T04:30:40;14.33;;;3.50;;
3355;SDS011;1691;52.486;13.374;2023-02-22T04:33:18;22.80;;;5.60;;
3355;SDS011;1691;52.486;13.374;2023-02-22T04:36:03;14.63;;;3.90;;
3355;SDS011;1691;52.486;13.374;2023-02-22T04:38:51;35.60;;;5.40;;
3355;SDS011;1691;52.486;13.374;2023-02-22T04:42:16;18.60;;;3.90;;
3355;SDS011;1691;52.486;13.374;2023-02-22T04:44:52;22.17;;;4.80;;
3355;SDS011;1691;52.486;13.374;2023-02-22T04:47:36;27.90;;;4.90;;
3355;SDS011;1691;52.486;13.374;2023-02-22T04:50:20;16.80;;;4.10;;
3355;SDS011;1691;52.486;13.374;2023-02-22T04:53:06;27.10;;;4.50;;
3355;SDS011;1691;52.486;13.374;2023-02-22T04:59:46;25.73;;;5.33;;
3355;SDS011;1691;52.486;13.374;2023-02-22T05:07:45;24.17;;;5.77;;
3355;SDS011;1691;52.486;13.374;2023-02-22T05:17:50;21.10;;;5.30;;
3355;SDS011;1691;52.486;13.374;2023-02-22T05:20:35;24.20;;;5.83;;
3355;SDS011;1691;52.486;13.374;2023-02-22T05:23:35;22.47;;;5.17;;
3355;SDS011;1691;52.486;13.374;2023-02-22T05:26:57;19.73;;;4.53;;
3355;SDS011;1691;52.486;13.374;2023-02-22T05:29:57;22.10;;;4.10;;
3355;SDS011;1691;52.486;13.374;2023-02-22T05:32:55;28.80;;;5.87;;
3355;SDS011;1691;52.486;13.374;2023-02-22T05:36:20;27.23;;;4.80;;
3355;SDS011;1691;52.486;13.374;2023-02-22T05:42:10;28.40;;;4.10;;
3355;SDS011;1691;52.486;13.374;2023-02-22T05:45:32;12.03;;;5.40;;
3355;SDS011;1691;52.486;13.374;2023-02-22T05:48:18;27.50;;;4.63;;
3355;SDS011;1691;52.486;13.374;2023-02-22T05:51:49;42.80;;;6.80;;
3355;SDS011;1691;52.486;13.374;2023-02-22T05:55:40;48.30;;;7.43;;
3355;SDS011;1691;52.486;13.374;2023-02-22T05:58:40;27.80;;;5.47;;
3355;SDS011;1691;52.486;13.374;2023-02-22T06:01:24;30.07;;;5.10;;
3355;SDS011;1691;52.486;13.374;2023-02-22T06:04:15;26.40;;;6.60;;
3355;SDS011;1691;52.486;13.374;2023-02-22T06:06:59;28.17;;;10.97;;
3355;SDS011;1691;52.486;13.374;2023-02-22T06:09:40;27.50;;;7.10;;
3355;SDS011;1691;52.486;13.374;2023-02-22T06:12:22;23.30;;;8.07;;
3355;SDS011;1691;52.486;13.374;2023-02-22T06:14:50;20.90;;;6.00;;
3355;SDS011;1691;52.486;13.374;2023-02-22T06:17:35;14.90;;;6.30;;
3355;SDS011;1691;52.486;13.374;2023-02-22T06:20:11;18.73;;;5.20;;
3355;SDS011;1691;52.486;13.374;2023-02-22T06:22:52;26.23;;;5.33;;
3355;SDS011;1691;52.486;13.374;2023-02-22T06:25:26;19.50;;;4.70;;
3355;SDS011;1691;52.486;13.374;2023-02-22T06:28:21;31.53;;;5.13;;
3355;SDS011;1691;52.486;13.374;2023-02-22T06:31:00;31.50;;;5.20;;
3355;SDS011;1691;52.486;13.374;2023-02-22T06:33:31;26.07;;;5.13;;
3355;SDS011;1691;52.486;13.374;2023-02-22T06:36:13;28.97;;;5.63;;
3355;SDS011;1691;52.486;13.374;2023-02-22T06:38:52;23.37;;;5.37;;
3355;SDS011;1691;52.486;13.374;2023-02-22T06:41:27;20.87;;;4.40;;
3355;SDS011;1691;52.486;13.374;2023-02-22T06:44:08;32.93;;;6.20;;
3355;SDS011;1691;52.486;13.374;2023-02-22T06:46:52;27.93;;;5.23;;
3355;SDS011;1691;52.486;13.374;2023-02-22T06:49:32;25.90;;;5.60;;
3355;SDS011;1691;52.486;13.374;2023-02-22T06:52:35;26.03;;;6.40;;
3355;SDS011;1691;52.486;13.374;2023-02-22T06:55:15;21.40;;;4.87;;
3355;SDS011;1691;52.486;13.374;2023-02-22T06:58:22;18.87;;;5.17;;
3355;SDS011;1691;52.486;13.374;2023-02-22T07:01:41;26.33;;;5.57;;
3355;SDS011;1691;52.486;13.374;2023-02-22T07:05:11;38.53;;;9.17;;
3355;SDS011;1691;52.486;13.374;2023-02-22T07:08:22;57.27;;;7.90;;
3355;SDS011;1691;52.486;13.374;2023-02-22T07:11:12;28.60;;;6.60;;
3355;SDS011;1691;52.486;13.374;2023-02-22T07:13:55;24.20;;;5.07;;
3355;SDS011;1691;52.486;13.374;2023-02-22T07:20:38;32.33;;;5.27;;
3355;SDS011;1691;52.486;13.374;2023-02-22T07:23:26;33.00;;;6.57;;
3355;SDS011;1691;52.486;13.374;2023-02-22T07:26:02;17.10;;;6.20;;
3355;SDS011;1691;52.486;13.374;2023-02-22T07:33:20;14.67;;;5.37;;
3355;SDS011;1691;52.486;13.374;2023-02-22T07:36:02;31.90;;;6.63;;
3355;SDS011;1691;52.486;13.374;2023-02-22T07:38:35;24.17;;;5.50;;
3355;SDS011;1691;52.486;13.374;2023-02-22T07:41:09;15.50;;;4.53;;
3355;SDS011;1691;52.486;13.374;2023-02-22T07:43:44;27.80;;;5.97;;
3355;SDS011;1691;52.486;13.374;2023-02-22T07:46:20;34.50;;;7.13;;
3355;SDS011;1691;52.486;13.374;2023-02-22T07:49:15;23.47;;;6.80;;
3355;SDS011;1691;52.486;13.374;2023-02-22T07:51:46;25.97;;;8.10;;
3355;SDS011;1691;52.486;13.374;2023-02-22T07:54:18;32.80;;;7.90;;
3355;SDS011;1691;52.486;13.374;2023-02-22T07:56:58;32.53;;;9.23;;
3355;SDS011;1691;52.486;13.374;2023-02-22T07:59:28;26.87;;;8.73;;
3355;SDS011;1691;52.486;13.374;2023-02-22T08:02:01;32.40;;;9.60;;
3355;SDS011;1691;52.486;13.374;2023-02-22T08:04:41;38.47;;;9.93;;
3355;SDS011;1691;52.486;13.374;2023-02-22T08:07:16;15.57;;;8.33;;
3355;SDS011;1691;52.486;13.374;2023-02-22T08:09:44;40.57;;;9.53;;
3355;SDS011;1691;52.486;13.374;2023-02-22T08:12:18;24.53;;;7.80;;
3355;SDS011;1691;52.486;13.374;2023-02-22T08:15:06;30.20;;;7.73;;
3355;SDS011;1691;52.486;13.374;2023-02-22T08:17:46;41.30;;;7.90;;
3355;SDS011;1691;52.486;13.374;2023-02-22T08:20:23;21.57;;;6.37;;
3355;SDS011;1691;52.486;13.374;2023-02-22T08:22:51;28.70;;;7.47;;
3355;SDS011;1691;52.486;13.374;2023-02-22T08:25:21;22.20;;;5.77;;
3355;SDS011;1691;52.486;13.374;2023-02-22T08:28:31;20.83;;;7.60;;
3355;SDS011;1691;52.486;13.374;2023-02-22T08:30:59;25.40;;;7.67;;
3355;SDS011;1691;52.486;13.374;2023-02-22T08:33:33;31.07;;;9.00;;
3355;SDS011;1691;52.486;13.374;2023-02-22T08:36:17;34.27;;;7.30;;
3355;SDS011;1691;52.486;13.374;2023-02-22T08:39:39;33.53;;;7.03;;
3355;SDS011;1691;52.486;13.374;2023-02-22T08:42:18;26.60;;;6.60;;
3355;SDS011;1691;52.486;13.374;2023-02-22T08:44:50;30.90;;;7.77;;
3355;SDS011;1691;52.486;13.374;2023-02-22T08:47:58;35.10;;;6.40;;
3355;SDS011;1691;52.486;13.374;2023-02-22T08:50:40;43.53;;;7.33;;
3355;SDS011;1691;52.486;13.374;2023-02-22T08:53:25;31.10;;;7.60;;
3355;SDS011;1691;52.486;13.374;2023-02-22T08:56:30;28.83;;;9.13;;
3355;SDS011;1691;52.486;13.374;2023-02-22T08:59:03;27.37;;;5.33;;
3355;SDS011;1691;52.486;13.374;2023-02-22T09:01:31;21.40;;;5.57;;
3355;SDS011;1691;52.486;13.374;2023-02-22T09:04:04;26.13;;;6.27;;
3355;SDS011;1691;52.486;13.374;2023-02-22T09:06:31;25.90;;;5.30;;
3355;SDS011;1691;52.486;13.374;2023-02-22T09:08:59;29.97;;;5.70;;
3355;SDS011;1691;52.486;13.374;2023-02-22T09:11:31;34.63;;;5.90;;
3355;SDS011;1691;52.486;13.374;2023-02-22T09:14:02;29.17;;;5.50;;
3355;SDS011;1691;52.486;13.374;2023-02-22T09:16:32;19.20;;;4.60;;
3355;SDS011;1691;52.486;13.374;2023-02-22T09:19:03;16.03;;;4.83;;
3355;SDS011;1691;52.486;13.374;2023-02-22T09:21:33;22.70;;;5.33;;
3355;SDS011;1691;52.486;13.374;2023-02-22T09:24:02;14.00;;;4.67;;
3355;SDS011;1691;52.486;13.374;2023-02-22T09:26:37;25.00;;;5.80;;
3355;SDS011;1691;52.486;13.374;2023-02-22T09:29:08;26.17;;;6.07;;
3355;SDS011;1691;52.486;13.374;2023-02-22T09:31:36;22.83;;;4.10;;
3355;SDS011;1691;52.486;13.374;2023-02-22T09:34:05;36.80;;;11.00;;
3355;SDS011;1691;52.486;13.374;2023-02-22T09:36:43;24.53;;;5.37;;
3355;SDS011;1691;52.486;13.374;2023-02-22T09:39:15;21.80;;;6.00;;
3355;SDS011;1691;52.486;13.374;2023-02-22T09:41:49;18.10;;;4.97;;
3355;SDS011;1691;52.486;13.374;2023-02-22T09:47:23;18.03;;;4.90;;
3355;SDS011;1691;52.486;13.374;2023-02-22T09:50:06;21.43;;;4.30;;
3355;SDS011;1691;52.486;13.374;2023-02-22T09:55:35;14.73;;;4.73;;
3355;SDS011;1691;52.486;13.374;2023-02-22T09:58:18;25.43;;;4.67;;
3355;SDS011;1691;52.486;13.374;2023-02-22T10:04:23;15.57;;;5.13;;
3355;SDS011;1691;52.486;13.374;2023-02-22T10:07:28;24.00;;;4.33;;
3355;SDS011;1691;52.486;13.374;2023-02-22T10:10:41;27.33;;;4.50;;
3355;SDS011;1691;52.486;13.374;2023-02-22T10:16:19;32.83;;;5.43;;
3355;SDS011;1691;52.486;13.374;2023-02-22T10:19:34;33.67;;;4.63;;
3355;SDS011;1691;52.486;13.374;2023-02-22T10:27:44;22.33;;;5.33;;
3355;SDS011;1691;52.486;13.374;2023-02-22T10:30:50;19.20;;;4.40;;
3355;SDS011;1691;52.486;13.374;2023-02-22T10:33:39;20.50;;;4.07;;
3355;SDS011;1691;52.486;13.374;2023-02-22T10:36:18;20.87;;;4.67;;
3355;SDS011;1691;52.486;13.374;2023-02-22T10:38:55;23.50;;;4.03;;
3355;SDS011;1691;52.486;13.374;2023-02-22T10:41:34;16.00;;;3.73;;
3355;SDS011;1691;52.486;13.374;2023-02-22T10:44:11;21.80;;;4.57;;
3355;SDS011;1691;52.486;13.374;2023-02-22T10:46:40;21.13;;;4.60;;
3355;SDS011;1691;52.486;13.374;2023-02-22T10:49:09;27.47;;;6.30;;
3355;SDS011;1691;52.486;13.374;2023-02-22T10:51:38;14.60;;;4.07;;
3355;SDS011;1691;52.486;13.374;2023-02-22T10:56:46;21.33;;;4.60;;
3355;SDS011;1691;52.486;13.374;2023-02-22T11:01:59;22.13;;;4.27;;
3355;SDS011;1691;52.486;13.374;2023-02-22T11:04:50;35.60;;;4.10;;
3355;SDS011;1691;52.486;13.374;2023-02-22T11:07:35;22.40;;;4.70;;
3355;SDS011;1691;52.486;13.374;2023-02-22T11:10:14;13.57;;;4.20;;
3355;SDS011;1691;52.486;13.374;2023-02-22T11:13:15;24.13;;;3.97;;
3355;SDS011;1691;52.486;13.374;2023-02-22T11:19:27;13.27;;;3.87;;
3355;SDS011;1691;52.486;13.374;2023-02-22T11:22:08;23.07;;;5.30;;
3355;SDS011;1691;52.486;13.374;2023-02-22T11:25:06;15.30;;;3.77;;
3355;SDS011;1691;52.486;13.374;2023-02-22T11:27:43;15.57;;;4.00;;
3355;SDS011;1691;52.486;13.374;2023-02-22T11:30:28;18.07;;;4.33;;
3355;SDS011;1691;52.486;13.374;2023-02-22T11:33:15;22.50;;;5.10;;
3355;SDS011;1691;52.486;13.374;2023-02-22T11:35:56;44.97;;;5.23;;
3355;SDS011;1691;52.486;13.374;2023-02-22T11:38:29;20.97;;;4.17;;
3355;SDS011;1691;52.486;13.374;2023-02-22T11:43:51;17.27;;;4.53;;
3355;SDS011;1691;52.486;13.374;2023-02-22T11:46:23;13.47;;;4.00;;
3355;SDS011;1691;52.486;13.374;2023-02-22T11:48:58;17.77;;;3.83;;
3355;SDS011;1691;52.486;13.374;2023-02-22T11:55:03;24.63;;;3.57;;
3355;SDS011;1691;52.486;13.374;2023-02-22T12:01:20;29.20;;;5.63;;
3355;SDS011;1691;52.486;13.374;2023-02-22T12:07:34;17.20;;;3.60;;
3355;SDS011;1691;52.486;13.374;2023-02-22T12:10:54;20.40;;;3.60;;
3355;SDS011;1691;52.486;13.374;2023-02-22T12:16:45;16.83;;;3.50;;
3355;SDS011;1691;52.486;13.374;2023-02-22T12:22:09;15.70;;;4.07;;
3355;SDS011;1691;52.486;13.374;2023-02-22T12:25:01;15.37;;;3.67;;
3355;SDS011;1691;52.486;13.374;2023-02-22T12:27:52;23.33;;;4.10;;
3355;SDS011;1691;52.486;13.374;2023-02-22T12:31:05;13.57;;;2.87;;
3355;SDS011;1691;52.486;13.374;2023-02-22T12:37:15;11.37;;;3.00;;
3355;SDS011;1691;52.486;13.374;2023-02-22T12:43:38;12.40;;;3.60;;
3355;SDS011;1691;52.486;13.374;2023-02-22T12:46:42;19.30;;;4.40;;
3355;SDS011;1691;52.486;13.374;2023-02-22T12:52:36;18.80;;;3.70;;
3355;SDS011;1691;52.486;13.374;2023-02-22T13:01:49;16.37;;;3.30;;
3355;SDS011;1691;52.486;13.374;2023-02-22T13:04:41;28.90;;;4.07;;
3355;SDS011;1691;52.486;13.374;2023-02-22T13:07:30;14.80;;;3.93;;
3355;SDS011;1691;52.486;13.374;2023-02-22T13:16:04;19.13;;;4.07;;
3355;SDS011;1691;52.486;13.374;2023-02-22T13:22:39;13.90;;;2.93;;
3355;SDS011;1691;52.486;13.374;2023-02-22T13:30:22;15.10;;;3.10;;
3355;SDS011;1691;52.486;13.374;2023-02-22T13:33:24;16.50;;;3.20;;
3355;SDS011;1691;52.486;13.374;2023-02-22T13:44:55;14.90;;;3.10;;
3355;SDS011;1691;52.486;13.374;2023-02-22T13:56:49;20.20;;;4.70;;
3355;SDS011;1691;52.486;13.374;2023-02-22T13:59:22;13.63;;;2.80;;
3355;SDS011;1691;52.486;13.374;2023-02-22T14:01:57;19.83;;;3.53;;
3355;SDS011;1691;52.486;13.374;2023-02-22T14:06:58;21.43;;;4.80;;
3355;SDS011;1691;52.486;13.374;2023-02-22T14:09:59;15.13;;;4.23;;
3355;SDS011;1691;52.486;13.374;2023-02-22T14:18:00;12.23;;;2.63;;
3355;SDS011;1691;52.486;13.374;2023-02-22T14:20:33;11.60;;;3.20;;
3355;SDS011;1691;52.486;13.374;2023-02-22T14:26:10;14.40;;;3.93;;
3355;SDS011;1691;52.486;13.374;2023-02-22T14:28:57;14.30;;;3.20;;
3355;SDS011;1691;52.486;13.374;2023-02-22T14:34:15;11.93;;;3.77;;
3355;SDS011;1691;52.486;13.374;2023-02-22T14:39:51;7.00;;;3.00;;
3355;SDS011;1691;52.486;13.374;2023-02-22T14:42:28;16.90;;;3.60;;
3355;SDS011;1691;52.486;13.374;2023-02-22T14:45:02;16.63;;;3.43;;
3355;SDS011;1691;52.486;13.374;2023-02-22T14:50:17;8.90;;;3.80;;
3355;SDS011;1691;52.486;13.374;2023-02-22T14:52:55;17.83;;;4.20;;
3355;SDS011;1691;52.486;13.374;2023-02-22T14:55:50;13.80;;;3.60;;
3355;SDS011;1691;52.486;13.374;2023-02-22T14:58:27;14.57;;;3.20;;
3355;SDS011;1691;52.486;13.374;2023-02-22T15:01:33;15.50;;;3.30;;
3355;SDS011;1691;52.486;13.374;2023-02-22T15:04:25;18.13;;;3.90;;
3355;SDS011;1691;52.486;13.374;2023-02-22T15:06:59;10.87;;;2.97;;
3355;SDS011;1691;52.486;13.374;2023-02-22T15:09:34;29.03;;;5.87;;
3355;SDS011;1691;52.486;13.374;2023-02-22T15:14:31;20.60;;;3.37;;
3355;SDS011;1691;52.486;13.374;2023-02-22T15:17:08;19.57;;;3.70;;
3355;SDS011;1691;52.486;13.374;2023-02-22T15:19:44;14.63;;;3.10;;
3355;SDS011;1691;52.486;13.374;2023-02-22T15:22:17;15.13;;;3.20;;
3355;SDS011;1691;52.486;13.374;2023-02-22T15:24:57;18.13;;;4.13;;
3355;SDS011;1691;52.486;13.374;2023-02-22T15:27:27;12.63;;;4.53;;
3355;SDS011;1691;52.486;13.374;2023-02-22T15:29:59;17.30;;;3.40;;
3355;SDS011;1691;52.486;13.374;2023-02-22T15:32:39;20.37;;;4.27;;
3355;SDS011;1691;52.486;13.374;2023-02-22T15:38:00;19.50;;;4.20;;
3355;SDS011;1691;52.486;13.374;2023-02-22T15:40:38;21.53;;;4.03;;
3355;SDS011;1691;52.486;13.374;2023-02-22T15:43:19;10.07;;;3.60;;
3355;SDS011;1691;52.486;13.374;2023-02-22T15:45:49;17.07;;;4.20;;
3355;SDS011;1691;52.486;13.374;2023-02-22T15:48:17;15.50;;;3.33;;
3355;SDS011;1691;52.486;13.374;2023-02-22T15:53:46;12.10;;;4.53;;
3355;SDS011;1691;52.486;13.374;2023-02-22T15:56:16;20.23;;;3.47;;
3355;SDS011;1691;52.486;13.374;2023-02-22T15:58:50;18.23;;;4.30;;
3355;SDS011;1691;52.486;13.374;2023-02-22T16:01:24;15.20;;;3.47;;
3355;SDS011;1691;52.486;13.374;2023-02-22T16:03:54;19.13;;;4.73;;
3355;SDS011;1691;52.486;13.374;2023-02-22T16:06:28;17.80;;;3.40;;
3355;SDS011;1691;52.486;13.374;2023-02-22T16:09:11;13.60;;;3.27;;
3355;SDS011;1691;52.486;13.374;2023-02-22T16:11:48;12.73;;;3.80;;
3355;SDS011;1691;52.486;13.374;2023-02-22T16:14:49;12.03;;;3.27;;
3355;SDS011;1691;52.486;13.374;2023-02-22T16:17:11;31.70;;;4.73;;
3355;SDS011;1691;52.486;13.374;2023-02-22T16:19:57;15.50;;;3.50;;
3355;SDS011;1691;52.486;13.374;2023-02-22T16:22:48;14.00;;;3.30;;
3355;SDS011;1691;52.486;13.374;2023-02-22T16:27:48;39.60;;;4.40;;
3355;SDS011;1691;52.486;13.374;2023-02-22T16:30:38;9.83;;;3.30;;
3355;SDS011;1691;52.486;13.374;2023-02-22T16:33:06;16.73;;;3.63;;
3355;SDS011;1691;52.486;13.374;2023-02-22T16:35:39;15.03;;;3.53;;
3355;SDS011;1691;52.486;13.374;2023-02-22T16:38:06;21.23;;;3.97;;
3355;SDS011;1691;52.486;13.374;2023-02-22T16:40:48;19.30;;;4.33;;
3355;SDS011;1691;52.486;13.374;2023-02-22T16:43:21;13.23;;;4.17;;
3355;SDS011;1691;52.486;13.374;2023-02-22T16:45:51;24.57;;;3.90;;
3355;SDS011;1691;52.486;13.374;2023-02-22T16:48:22;7.93;;;3.60;;
3355;SDS011;1691;52.486;13.374;2023-02-22T16:50:52;8.47;;;2.97;;
3355;SDS011;1691;52.486;13.374;2023-02-22T16:53:23;19.77;;;4.07;;
3355;SDS011;1691;52.486;13.374;2023-02-22T16:55:53;15.97;;;4.00;;
3355;SDS011;1691;52.486;13.374;2023-02-22T16:58:24;16.30;;;3.27;;
3355;SDS011;1691;52.486;13.374;2023-02-22T17:00:53;19.23;;;3.60;;
3355;SDS011;1691;52.486;13.374;2023-02-22T17:03:23;15.10;;;4.30;;
3355;SDS011;1691;52.486;13.374;2023-02-22T17:05:51;17.23;;;3.30;;
3355;SDS011;1691;52.486;13.374;2023-02-22T17:08:19;15.13;;;3.37;;
3355;SDS011;1691;52.486;13.374;2023-02-22T17:10:46;12.30;;;3.90;;
3355;SDS011;1691;52.486;13.374;2023-02-22T17:13:19;20.23;;;3.00;;
3355;SDS011;1691;52.486;13.374;2023-02-22T17:15:52;15.00;;;3.97;;
3355;SDS011;1691;52.486;13.374;2023-02-22T17:18:20;21.53;;;5.17;;
3355;SDS011;1691;52.486;13.374;2023-02-22T17:20:49;22.30;;;4.60;;
3355;SDS011;1691;52.486;13.374;2023-02-22T17:23:18;25.97;;;5.40;;
3355;SDS011;1691;52.486;13.374;2023-02-22T17:25:53;13.70;;;4.27;;
3355;SDS011;1691;52.486;13.374;2023-02-22T17:28:30;29.97;;;4.53;;
3355;SDS011;1691;52.486;13.374;2023-02-22T17:30:57;14.77;;;4.10;;
3355;SDS011;1691;52.486;13.374;2023-02-22T17:33:29;14.03;;;4.70;;
3355;SDS011;1691;52.486;13.374;2023-02-22T17:35:59;10.77;;;4.50;;
3355;SDS011;1691;52.486;13.374;2023-02-22T17:38:28;27.20;;;5.97;;
3355;SDS011;1691;52.486;13.374;2023-02-22T17:40:57;10.27;;;3.80;;
3355;SDS011;1691;52.486;13.374;2023-02-22T17:43:25;25.33;;;5.73;;
3355;SDS011;1691;52.486;13.374;2023-02-22T17:45:55;10.17;;;4.50;;
3355;SDS011;1691;52.486;13.374;2023-02-22T17:48:22;21.43;;;5.20;;
3355;SDS011;1691;52.486;13.374;2023-02-22T17:50:50;14.60;;;5.13;;
3355;SDS011;1691;52.486;13.374;2023-02-22T17:53:18;13.47;;;4.60;;
3355;SDS011;1691;52.486;13.374;2023-02-22T17:55:48;13.27;;;4.10;;
3355;SDS011;1691;52.486;13.374;2023-02-22T17:58:15;11.30;;;3.57;;
3355;SDS011;1691;52.486;13.374;2023-02-22T18:00:44;16.60;;;5.63;;
3355;SDS011;1691;52.486;13.374;2023-02-22T18:03:15;15.73;;;4.90;;
3355;SDS011;1691;52.486;13.374;2023-02-22T18:05:47;17.93;;;5.80;;
3355;SDS011;1691;52.486;13.374;2023-02-22T18:08:16;13.37;;;4.47;;
3355;SDS011;1691;52.486;13.374;2023-02-22T18:10:44;15.53;;;4.30;;
3355;SDS011;1691;52.486;13.374;2023-02-22T18:13:13;24.53;;;4.80;;
3355;SDS011;1691;52.486;13.374;2023-02-22T18:15:45;13.63;;;3.80;;
3355;SDS011;1691;52.486;13.374;2023-02-22T18:18:12;9.67;;;3.00;;
3355;SDS011;1691;52.486;13.374;2023-02-22T18:20:41;6.97;;;3.10;;
3355;SDS011;1691;52.486;13.374;2023-02-22T18:23:12;19.63;;;5.03;;
3355;SDS011;1691;52.486;13.374;2023-02-22T18:25:49;18.70;;;5.00;;
3355;SDS011;1691;52.486;13.374;2023-02-22T18:28:35;14.80;;;4.40;;
3355;SDS011;1691;52.486;13.374;2023-02-22T18:31:12;11.67;;;3.90;;
3355;SDS011;1691;52.486;13.374;2023-02-22T18:33:42;12.50;;;5.17;;
3355;SDS011;1691;52.486;13.374;2023-02-22T18:36:11;8.40;;;3.87;;
3355;SDS011;1691;52.486;13.374;2023-02-22T18:38:41;6.57;;;3.37;;
3355;SDS011;1691;52.486;13.374;2023-02-22T18:41:10;13.07;;;4.00;;
3355;SDS011;1691;52.486;13.374;2023-02-22T18:43:40;11.30;;;4.30;;
3355;SDS011;1691;52.486;13.374;2023-02-22T18:48:46;7.83;;;4.57;;
3355;SDS011;1691;52.486;13.374;2023-02-22T18:51:16;19.90;;;5.47;;
3355;SDS011;1691;52.486;13.374;2023-02-22T18:53:43;9.50;;;4.20;;
3355;SDS011;1691;52.486;13.374;2023-02-22T18:56:13;19.87;;;5.53;;
3355;SDS011;1691;52.486;13.374;2023-02-22T18:58:47;14.77;;;4.30;;
3355;SDS011;1691;52.486;13.374;2023-02-22T19:01:23;11.13;;;4.20;;
3355;SDS011;1691;52.486;13.374;2023-02-22T19:03:51;8.63;;;4.00;;
3355;SDS011;1691;52.486;13.374;2023-02-22T19:06:19;21.70;;;4.10;;
3355;SDS011;1691;52.486;13.374;2023-02-22T19:08:49;13.10;;;3.70;;
3355;SDS011;1691;52.486;13.374;2023-02-22T19:11:18;13.27;;;4.07;;
3355;SDS011;1691;52.486;13.374;2023-02-22T19:13:48;9.07;;;5.00;;